Stations météo

Publicité
Salsburgh, Grande-Bretagne (99024): Température de l'air & dewpoint: 10.02.2019 17:00:00 - 16.02.2019 17:00:00 (GMT)Salsburgh, Grande-Bretagne (99024): Vitesse du vent & gusts: 10.02.2019 17:00:00 - 16.02.2019 17:00:00 (GMT)Salsburgh, Grande-Bretagne (99024): Direction du vent: 10.02.2019 17:00:00 - 16.02.2019 17:00:00 (GMT)Salsburgh, Grande-Bretagne (99024): Quantités de précipitations: 10.02.2019 17:00:00 - 16.02.2019 17:00:00 (GMT)
Date & Time tt [°C] td [°C] ff [km/h] ff [knt] fx [km/h] fx [knt] dd rr [mm]
16.02.2019 17:00:00 7,8 4,8 31 17 50 27 S -
16.02.2019 16:00:00 8,2 5,0 29 16 52 28 S 0,0
16.02.2019 15:00:00 8,9 3,8 37 20 52 28 SSW 0,0
16.02.2019 14:00:00 9,0 4,3 37 20 54 29 SSW 0,0
16.02.2019 13:00:00 7,9 4,6 35 19 46 25 SW 0,0
16.02.2019 12:00:00 7,6 4,9 35 19 54 29 SSW 0,0
16.02.2019 11:00:00 7,8 5,4 35 19 48 26 SSW 0,0
16.02.2019 10:00:00 6,9 5,5 34 18 46 25 SSW 0,2
16.02.2019 09:00:00 7,1 5,2 29 16 - - S 0,0
16.02.2019 08:00:00 7,1 5,6 28 15 - - SSW 0,0
16.02.2019 07:00:00 7,2 5,7 34 18 46 25 SSW 0,0
16.02.2019 06:00:00 7,5 5,7 28 15 - - SSW 0,0
16.02.2019 05:00:00 7,9 5,2 29 16 - - SSW 0,0
16.02.2019 04:00:00 8,0 5,2 31 17 46 25 SSW 0,0
16.02.2019 03:00:00 7,8 5,6 26 14 59 32 SSW 0,0
16.02.2019 02:00:00 7,9 6,3 41 22 57 31 SSW 0,0
16.02.2019 01:00:00 8,5 6,7 42 23 65 35 SSW 0,0
16.02.2019 00:00:00 8,5 7,4 39 21 61 33 S 0,0
15.02.2019 23:00:00 8,1 7,4 37 20 55 30 S 0,0
15.02.2019 22:00:00 8,4 7,2 41 22 63 34 S 0,0
15.02.2019 21:00:00 8,0 6,0 29 16 57 31 S 0,0
15.02.2019 20:00:00 7,4 4,0 42 23 57 31 S 0,0
15.02.2019 19:00:00 6,9 3,2 39 21 50 27 S 0,0
15.02.2019 18:00:00 6,7 3,5 29 16 48 26 S 0,0
15.02.2019 17:00:00 8,5 4,1 34 18 52 28 SSW 0,0
15.02.2019 16:00:00 8,2 4,7 22 12 50 27 S 0,0
15.02.2019 15:00:00 9,0 4,6 42 23 54 29 S 0,0
15.02.2019 14:00:00 10,1 4,4 37 20 48 26 S 0,0
15.02.2019 13:00:00 10,2 4,4 29 16 - - S 0,0
15.02.2019 12:00:00 8,5 3,6 28 15 - - S 0,0
15.02.2019 11:00:00 6,5 2,7 29 16 46 25 S 0,0
15.02.2019 10:00:00 5,1 2,2 35 19 48 26 S 0,0
15.02.2019 09:00:00 4,0 1,8 39 21 52 28 S 0,0
15.02.2019 08:00:00 3,4 1,8 31 17 46 25 S 0,0
15.02.2019 07:00:00 2,8 1,6 16 9 - - S 0,0
15.02.2019 06:00:00 2,5 1,7 13 7 - - S 0,0
15.02.2019 05:00:00 2,5 1,5 18 10 - - SSE 0,0
15.02.2019 04:00:00 2,9 1,4 21 11 - - S 0,0
15.02.2019 03:00:00 3,8 1,8 26 14 - - S 0,0
15.02.2019 02:00:00 4,7 1,8 31 17 - - S 0,0
15.02.2019 01:00:00 4,7 1,8 34 18 - - S 0,0
15.02.2019 00:00:00 4,4 1,0 28 15 - - SSE 0,0
14.02.2019 23:00:00 3,6 0,5 18 10 - - S 0,0
14.02.2019 22:00:00 3,9 1,6 21 11 - - S 0,0
14.02.2019 21:00:00 4,1 2,0 18 10 - - S 0,0
14.02.2019 20:00:00 4,6 2,6 24 13 - - S 0,0
14.02.2019 19:00:00 4,4 2,7 24 13 - - S 0,0
14.02.2019 18:00:00 4,8 2,8 18 10 - - S 0,0
14.02.2019 17:00:00 5,6 4,1 22 12 - - S 0,0
14.02.2019 16:00:00 7,3 5,0 24 13 - - S 0,0
14.02.2019 15:00:00 8,2 5,4 22 12 - - SSW 0,0
14.02.2019 14:00:00 8,0 5,5 34 18 - - SSW 0,0
14.02.2019 13:00:00 7,9 5,5 31 17 - - SSW 0,0
14.02.2019 12:00:00 7,8 5,7 26 14 46 25 S 0,0
14.02.2019 11:00:00 8,0 5,9 31 17 46 25 S 0,0
14.02.2019 10:00:00 7,4 5,5 26 14 - - SSW 0,0
14.02.2019 09:00:00 6,9 5,6 31 17 46 25 S 0,0
14.02.2019 08:00:00 6,8 5,6 31 17 - - S 0,0
14.02.2019 07:00:00 7,3 5,9 29 16 - - S 0,0
14.02.2019 06:00:00 7,3 5,9 21 11 - - S 0,0
14.02.2019 05:00:00 7,4 6,0 21 11 - - SSW 0,0
14.02.2019 04:00:00 7,4 6,1 16 9 - - S 0,0
14.02.2019 03:00:00 7,4 6,1 29 16 50 27 S 0,0
14.02.2019 02:00:00 7,3 5,9 22 12 - - S 0,0
14.02.2019 01:00:00 7,4 5,5 21 11 50 27 S 0,0
14.02.2019 00:00:00 7,5 5,5 37 20 52 28 S 0,0
13.02.2019 23:00:00 7,6 5,2 29 16 46 25 S 0,0
13.02.2019 22:00:00 7,5 5,3 28 15 52 28 S 0,0
13.02.2019 21:00:00 7,6 5,6 37 20 52 28 SSW 0,0
13.02.2019 20:00:00 7,5 5,8 28 15 50 27 S 0,0
13.02.2019 19:00:00 7,7 5,9 31 17 48 26 S 0,0
13.02.2019 18:00:00 7,8 6,0 34 18 - - S 0,0
13.02.2019 17:00:00 7,9 6,0 26 14 54 29 SSW 0,0
13.02.2019 16:00:00 8,1 6,0 35 19 57 31 SSW 0,0
13.02.2019 15:00:00 8,6 6,5 31 17 50 27 SSW 0,0
13.02.2019 14:00:00 8,1 6,5 28 15 52 28 SSW 0,0
13.02.2019 13:00:00 8,1 6,5 35 19 50 27 SSW 0,0
13.02.2019 12:00:00 8,0 6,7 34 18 52 28 SSW 0,0
13.02.2019 11:00:00 7,9 6,7 29 16 52 28 SSW 0,0
13.02.2019 10:00:00 7,7 6,8 35 19 54 29 SSW 0,0
13.02.2019 09:00:00 7,8 6,9 35 19 54 29 SSW 0,0
13.02.2019 08:00:00 7,8 7,0 37 20 55 30 SSW 0,0
13.02.2019 07:00:00 7,8 6,9 41 22 55 30 SSW 0,0
13.02.2019 06:00:00 7,9 6,9 28 15 48 26 SSW 0,0
13.02.2019 05:00:00 7,8 7,1 34 18 48 26 SSW 0,0
13.02.2019 04:00:00 7,9 7,9 35 19 50 27 S 0,0
13.02.2019 03:00:00 7,8 7,7 24 13 - - S 0,2
13.02.2019 02:00:00 7,4 7,1 22 12 - - S 0,0
13.02.2019 01:00:00 6,1 5,5 21 11 - - S 0,0
13.02.2019 00:00:00 6,2 5,9 18 10 - - S 0,0
12.02.2019 23:00:00 6,7 6,7 22 12 - - S 0,0
12.02.2019 22:00:00 6,9 6,9 11 6 - - SSW 0,0
12.02.2019 21:00:00 7,7 7,6 22 12 - - SW 0,0
12.02.2019 20:00:00 7,7 7,3 29 16 - - WSW 0,0
12.02.2019 19:00:00 7,7 7,5 26 14 48 26 SW 0,0
12.02.2019 18:00:00 8,3 7,6 37 20 52 28 SW 0,0
12.02.2019 17:00:00 9,1 7,5 35 19 50 27 SW 0,0
12.02.2019 16:00:00 9,2 7,9 35 19 50 27 SW 0,0
12.02.2019 15:00:00 9,0 8,0 29 16 57 31 SW 0,0
12.02.2019 14:00:00 8,9 7,7 42 23 65 35 SW 0,0
12.02.2019 13:00:00 8,7 7,3 42 23 61 33 SSW 0,0
12.02.2019 12:00:00 8,4 7,0 34 18 57 31 SSW 0,0
12.02.2019 11:00:00 8,1 6,9 31 17 - - SSW 0,0
12.02.2019 10:00:00 7,2 6,7 35 19 52 28 SSW 0,0
12.02.2019 09:00:00 6,7 6,5 34 18 - - SSW 0,0
12.02.2019 08:00:00 6,2 6,2 28 15 - - SSW 0,0
12.02.2019 07:00:00 5,9 5,9 29 16 52 28 SSW 0,0
12.02.2019 06:00:00 6,3 5,0 39 21 52 28 S 0,0
12.02.2019 05:00:00 5,3 4,3 26 14 - - S 0,0
12.02.2019 04:00:00 5,4 4,2 31 17 - - S 0,0
12.02.2019 03:00:00 4,8 3,8 28 15 - - S 0,0
12.02.2019 02:00:00 4,9 3,8 26 14 - - S 0,0
12.02.2019 01:00:00 4,0 3,0 24 13 - - S 0,0
12.02.2019 00:00:00 3,7 2,7 24 13 - - S 0,0
11.02.2019 23:00:00 3,2 2,2 24 13 - - S 0,0
11.02.2019 22:00:00 2,9 1,6 22 12 - - S 0,0
11.02.2019 21:00:00 2,8 1,1 18 10 - - S 0,0
11.02.2019 20:00:00 2,6 1,5 18 10 - - S 0,0
11.02.2019 19:00:00 2,5 2,1 15 8 - - SSW 0,0
11.02.2019 18:00:00 2,4 1,8 18 10 - - SW 0,0
11.02.2019 17:00:00 3,4 1,7 16 9 - - SW 0,0
11.02.2019 16:00:00 4,3 1,4 21 11 - - SW 0,0
11.02.2019 15:00:00 5,3 1,7 18 10 - - WSW 0,0
11.02.2019 14:00:00 5,4 1,2 18 10 - - SSW 0,0
11.02.2019 13:00:00 4,4 0,7 15 8 - - SSW 0,0
11.02.2019 12:00:00 4,3 1,6 11 6 - - S 0,0
11.02.2019 11:00:00 3,5 0,9 5 3 - - SSW 0,0
11.02.2019 10:00:00 2,3 0,7 5 3 - - S 0,0
11.02.2019 09:00:00 0,7 -0,2 5 3 - - S 0,0
11.02.2019 08:00:00 1,3 -0,8 4 2 - - WSW 0,0
11.02.2019 07:00:00 1,3 -1,0 4 2 - - NW 0,0
11.02.2019 06:00:00 1,4 -0,6 9 5 - - N 0,0
11.02.2019 05:00:00 0,9 -0,7 4 2 - - ENE 0,0
11.02.2019 04:00:00 1,2 -0,5 13 7 - - N 0,0
11.02.2019 03:00:00 1,3 0,1 8 4 - - N 0,0
11.02.2019 02:00:00 0,8 0,8 9 5 - - W 0,0
11.02.2019 01:00:00 0,5 0,5 8 4 - - WSW 0,0
11.02.2019 00:00:00 1,0 1,0 5 3 - - W 0,0
10.02.2019 23:00:00 1,8 1,8 13 7 - - W 0,0
10.02.2019 22:00:00 2,0 2,0 11 6 - - W 0,0
10.02.2019 21:00:00 1,4 1,3 15 8 - - WSW 0,0
10.02.2019 20:00:00 2,1 1,6 11 6 - - SW 0,0
10.02.2019 19:00:00 2,2 1,6 8 4 - - WSW 0,0
10.02.2019 18:00:00 2,4 1,1 9 5 - - W 0,0
10.02.2019 17:00:00 3,0 0,9 16 9 - - WSW 0,0

tt = Température de l'air
td = dewpoint
ff = Vitesse du vent
fx = gusts
dd = Direction du vent
rr = Quantités de précipitations

stations d'obs. à proximité